Inda, Mississippi
Current Conditions -  °F | °C
As of 8:35 PM on Sunday 21 Dec 2014 (Local Time) from KGPT Reporting Station
Haze Haze  
Wind Chill: 56°   Ceiling: 700
Heat Index: 56°   Visibility: 5mi
Dew Point: 53°   Wind: 7mph
Humidity: 90%   Direction: 60°ENE
Pressure: 29.98"   Gusts: NA
Location:  30.7239°N, 89.1669°W
Report Text: KGPT 220235Z 06006KT 5SM BR BKN007 OVC013 13/12 A2998 RMK AO2 T01330117
Loading
Personal Weather Stations






























Interactive Weather Map New forecast layout! Learn more

10-Day Weather Forecast

Advertisements
Track Severe Weather on mobile